APRS Cudillero [IN63UN], 2 Stunde(n), EC1KV-1 [17:03:28, 30s].
EC1KV 43.34.01N 006.16.01WIN63UN 0.009km 324°NW16:03:10ZALBUERNE(3EC1KV-1)
EA1BSW 43.32.21N 006.31.53WIN63RM 21.109km 261°W16:02:08ZMMDVM MMDVM HS Hat 432.1000/432.1000 CC1(3EA1BSW-5)
EA1DZL 43.33.56N 005.55.78WIN73AN 27.170km 92°E15:44:38ZMMDVM MMDVM HS Hat 438.8000/438.8000 CC1(3EA1DZL-1)
LETN 43.20.05N 006.22.69WIN63TI 27.383km 199°SSW16:00:04ZAerodromo de La Curiscada (Tineo): LEAS 281530Z 27015KT 9999 -RA SCT030 BKN060 11/08 Q1023 NOSIG=
ED1ZAY 43.29.47N 005.56.54WIN73AL 27.450km 108°ESE16:00:17ZRD625 438.3000/430.7000 CC1
EA1AHA 43.32.74N 005.54.35WIN73BN 29.162km 94°E16:00:45ZWind 270°/018kn, Böen bis 023kn, Temp 12.78c, Regen 3.6mm, letzte 24h 28.2mm, seit 0h 28.2mm, Baro 1025.7h, Hum: 75%(3EA1AHA-13)
MMDVM MMDVM HS 433.5000/433.5000 CC1(2EA1AHA)
ED1ZAU 43.23.04N 005.52.75WIN73BJ 37.281km 123°ESE16:00:14ZRD625 438.5000/430.9000 CC1
LEGM 43.26.15N 005.49.84WIN73CK 38.055km 112°ESE16:00:03ZHelipuerto de La Morgal (123.500MHz): LEAS 281530Z 27015KT 9999 -RA SCT030 BKN060 11/08 Q1023 NOSIG=
LEMR 43.25.83N 005.49.60WIN73CK 38.578km 113°ESE16:00:04ZAerodromo de la Morgal (123.500MHz): LEAS 281530Z 27015KT 9999 -RA SCT030 BKN060 11/08 Q1023 NOSIG=
EA1AXV 43.37.36N 005.47.23WIN73CO 39.116km 81°E16:01:18Zop.maria isabel - Luanco /Asturias {UIV32}
EA1HJA 43.21.47N 005.52.09WIN73BI 39.654km 126°SE15:44:04Z IN73FL WX3IN1+ 2.0 - V=13.9V,TX TEMP=42.5C
EA1JBU 43.21.85N 005.51.13WIN73BI 40.320km 124°SE16:00:10ZEA1JBU(3EA1JBU-1)
33D00 43.21.63N 005.51.13WIN73BI 40.561km 124°SE16:01:42Z33-D-00 Protección Civil REMER / Delegación del Gobierno en Asturias
LEHU 43.22.63N 005.49.57WIN73CJ 41.317km 121°ESE16:00:03ZHelipuerto del HUCA: LEAS 281530Z 27015KT 9999 -RA SCT030 BKN060 11/08 Q1023 NOSIG=
EA1ABW 43.24.77N 005.47.77WIN73CJ 41.618km 114°ESE16:01:42ZMMDVM MMDVM HS Hat 439.8250/439.8250 CC1(3EA1ABW-2)
EA1L 43.20.37N 005.51.13WIN73BI 41.918km 127°SE16:00:15Zea1l@ure.es V=13.2V
Wind 262°/004kn, Böen bis 010kn, Temp 12.22c, Regen 0.0mm, letzte 24h 3.3mm, seit 0h 3.3mm, Baro 1022.0h, Hum: 70%(2EA1L-13)
EA1IPU 43.26.21N 005.46.62WIN73CK 42.049km 110°ESE16:02:07ZMMDVM MMDVM HS Hat 439.8000/439.8000 CC1(3EA1IPU-1)
EA1HWX 43.19.28N 005.50.98WIN73BH 43.337km 129°SE16:02:38ZDMO - UHF 439.7250/431.0000 CC11(3EA1HWX-2)
MMDVM DMO 222.3400/222.3400 CC1(2EA1HWX-10)
EB1TK 43.32.22N 005.42.32WIN73DM 45.357km 94°E15:55:15ZWind 244°/008kn, Böen bis 019kn, Temp 12.22c, Regen 0.5mm, letzte 24h 12.7mm, seit 0h 12.7mm, Baro 1026.3h, Hum: 88%(3EB1TK-13)
LEEL 43.32.98N 005.41.71WIN73DN 46.078km 92°E16:00:03ZHelipuerto de El Musel: LEAS 281530Z 27015KT 9999 -RA SCT030 BKN060 11/08 Q1023 NOSIG=

aprs.pl 5.0.011w DL3EL © 2006-2021 [7847196]